createdAt,value
2022-09-14T00:00:39.832Z,98508.19
2022-09-14T00:01:40.318Z,98503.56
2022-09-14T00:02:37.651Z,98505.19
2022-09-14T00:03:34.844Z,98499.06
2022-09-14T00:04:31.601Z,98499.94
2022-09-14T00:05:28.983Z,98499.00
2022-09-14T00:06:26.069Z,98489.28
2022-09-14T00:07:22.996Z,98497.25
2022-09-14T00:08:20.131Z,98496.41
2022-09-14T00:09:19.015Z,98498.25
2022-09-14T00:10:15.941Z,98500.78
2022-09-14T00:11:14.311Z,98492.91
2022-09-14T00:12:11.371Z,98496.50
2022-09-14T00:13:08.901Z,98495.66
2022-09-14T00:14:06.396Z,98491.25
2022-09-14T00:15:03.511Z,98485.16
2022-09-14T00:16:07.089Z,98489.47
2022-09-14T00:17:04.572Z,98482.13
2022-09-14T00:18:01.653Z,98474.16
2022-09-14T00:19:06.624Z,98481.19
2022-09-14T00:20:03.972Z,98483.00
2022-09-14T00:21:05.961Z,98475.00
2022-09-14T00:22:03.790Z,98475.94
2022-09-14T00:23:00.683Z,98477.06
2022-09-14T00:23:57.536Z,98473.53
2022-09-14T00:24:54.549Z,98471.06
2022-09-14T00:25:51.465Z,98474.31
2022-09-14T00:26:48.656Z,98467.34
2022-09-14T00:27:45.560Z,98476.31
2022-09-14T00:28:50.145Z,98473.97
2022-09-14T00:29:48.703Z,98467.03
2022-09-14T00:30:45.767Z,98465.13
2022-09-14T00:31:42.845Z,98465.47
2022-09-14T00:32:39.829Z,98462.03
2022-09-14T00:33:37.102Z,98458.59
2022-09-14T00:34:34.947Z,98461.09
2022-09-14T00:35:31.861Z,98454.66
2022-09-14T00:36:29.397Z,98451.88
2022-09-14T00:37:26.508Z,98450.00
2022-09-14T00:38:25.794Z,98451.88
2022-09-14T00:39:28.231Z,98448.66
2022-09-14T00:40:25.446Z,98449.66
2022-09-14T00:41:24.836Z,98446.91
2022-09-14T00:42:21.687Z,98450.53
2022-09-14T00:43:18.626Z,98448.88
2022-09-14T00:44:15.567Z,98449.19
2022-09-14T00:45:16.046Z,98446.47
2022-09-14T00:46:13.120Z,98443.00
2022-09-14T00:47:10.295Z,98444.81
2022-09-14T00:48:07.472Z,98444.06
2022-09-14T00:49:07.079Z,98439.56
2022-09-14T00:50:04.417Z,98442.94
2022-09-14T00:51:01.388Z,98435.63
2022-09-14T00:52:10.354Z,98439.03
2022-09-14T00:53:07.521Z,98440.00
2022-09-14T00:54:04.707Z,98435.47
2022-09-14T00:55:12.987Z,98438.38
2022-09-14T00:56:09.941Z,98438.22
2022-09-14T00:57:06.956Z,98433.97
2022-09-14T00:58:03.926Z,98430.56
2022-09-14T00:59:04.141Z,98430.63
2022-09-14T01:00:01.103Z,98417.41
2022-09-14T01:00:58.961Z,98425.56
2022-09-14T01:01:56.169Z,98422.13
2022-09-14T01:02:53.160Z,98423.88
2022-09-14T01:03:50.130Z,98421.97
2022-09-14T01:04:46.969Z,98421.19
2022-09-14T01:05:47.612Z,98424.63
2022-09-14T01:06:53.267Z,98428.91
2022-09-14T01:07:56.565Z,98433.28
2022-09-14T01:09:25.922Z,98429.63
2022-09-14T01:13:00.126Z,98428.75
2022-09-14T01:14:39.278Z,98427.69
2022-09-14T01:15:55.252Z,98427.56
2022-09-14T01:16:52.233Z,98426.47
2022-09-14T01:18:18.859Z,98439.78
2022-09-14T01:19:54.682Z,98432.66
2022-09-14T01:21:13.182Z,98434.34
2022-09-14T01:22:18.361Z,98433.22
2022-09-14T01:23:41.922Z,98438.47
2022-09-14T01:24:48.426Z,98436.88
2022-09-14T01:26:22.574Z,98442.34
2022-09-14T01:27:44.219Z,98448.72
2022-09-14T01:28:42.146Z,98449.47
2022-09-14T01:29:42.952Z,98456.53
2022-09-14T01:34:09.476Z,98466.44
2022-09-14T01:35:21.465Z,98465.19
2022-09-14T01:36:18.374Z,98461.53
2022-09-14T01:37:27.544Z,98447.25
2022-09-14T01:38:35.281Z,98443.53
2022-09-14T01:39:32.225Z,98443.53
2022-09-14T01:40:31.880Z,98448.69
2022-09-14T01:41:31.394Z,98443.38
2022-09-14T01:42:28.503Z,98430.03
2022-09-14T01:43:54.228Z,98442.28
2022-09-14T01:44:54.654Z,98435.22
2022-09-14T01:45:53.521Z,98428.06
2022-09-14T01:47:00.044Z,98427.28
2022-09-14T01:48:04.784Z,98429.09
2022-09-14T01:49:08.298Z,98430.03
2022-09-14T01:50:13.096Z,98425.75
2022-09-14T01:51:13.053Z,98418.69
2022-09-14T01:52:16.113Z,98419.50
2022-09-14T01:53:20.148Z,98413.28
2022-09-14T01:54:42.125Z,98411.50
2022-09-14T01:55:59.781Z,98403.56
2022-09-14T01:57:03.135Z,98398.84
2022-09-14T01:58:03.247Z,98405.09
2022-09-14T01:59:13.818Z,98403.31
2022-09-14T02:00:16.454Z,98404.44
2022-09-14T02:01:31.602Z,98410.56
2022-09-14T02:02:33.793Z,98398.59
2022-09-14T02:03:34.366Z,98396.78
2022-09-14T02:04:46.514Z,98403.34
2022-09-14T02:06:00.229Z,98401.69
2022-09-14T02:06:57.183Z,98394.66
2022-09-14T02:07:54.067Z,98403.44
2022-09-14T02:08:51.413Z,98395.34
2022-09-14T02:09:48.780Z,98398.97
2022-09-14T02:10:47.977Z,98400.41
2022-09-14T02:11:44.982Z,98399.81
2022-09-14T02:12:41.911Z,98392.16
2022-09-14T02:13:38.759Z,98398.50
2022-09-14T02:14:35.737Z,98392.31
2022-09-14T02:15:32.872Z,98391.63
2022-09-14T02:16:29.703Z,98396.28
2022-09-14T02:17:26.677Z,98390.34
2022-09-14T02:18:23.716Z,98393.34
2022-09-14T02:19:23.796Z,98394.28
2022-09-14T02:20:29.074Z,98385.94
2022-09-14T02:21:29.977Z,98383.09
2022-09-14T02:22:28.054Z,98377.75
2022-09-14T02:23:25.068Z,98389.31
2022-09-14T02:24:22.171Z,98377.75
2022-09-14T02:25:19.868Z,98378.66
2022-09-14T02:26:17.032Z,98380.31
2022-09-14T02:27:13.962Z,98382.03
2022-09-14T02:28:10.879Z,98374.72
2022-09-14T02:29:07.851Z,98381.66
2022-09-14T02:30:05.453Z,98384.25
2022-09-14T02:31:59.359Z,98378.41
2022-09-14T02:33:03.805Z,98378.13
2022-09-14T02:34:22.002Z,98379.59
2022-09-14T02:35:48.109Z,98379.41
2022-09-14T02:36:49.153Z,98375.97
2022-09-14T02:37:57.576Z,98381.13
2022-09-14T02:39:17.699Z,98377.59
2022-09-14T02:40:36.577Z,98372.97
2022-09-14T02:41:49.489Z,98375.53
2022-09-14T02:43:05.535Z,98366.94
2022-09-14T02:44:30.164Z,98368.00
2022-09-14T02:45:38.981Z,98365.13
2022-09-14T02:46:53.504Z,98366.84
2022-09-14T02:48:18.353Z,98366.94
2022-09-14T02:49:53.116Z,98359.41
2022-09-14T02:50:56.524Z,98362.06
2022-09-14T02:52:17.580Z,98359.31
2022-09-14T02:53:19.751Z,98367.41
2022-09-14T02:54:19.636Z,98358.47
2022-09-14T02:55:22.096Z,98352.47
2022-09-14T02:56:18.837Z,98358.47
2022-09-14T02:57:15.747Z,98356.53
2022-09-14T02:58:13.277Z,98352.06
2022-09-14T02:59:10.077Z,98352.94
2022-09-14T03:00:07.488Z,98345.03
2022-09-14T03:01:04.934Z,98359.91
2022-09-14T03:02:02.025Z,98355.78
2022-09-14T03:02:59.143Z,98347.81
2022-09-14T03:03:56.149Z,98353.88
2022-09-14T03:04:53.650Z,98361.00
2022-09-14T03:05:50.529Z,98351.31
2022-09-14T03:06:47.356Z,98358.28
2022-09-14T03:07:44.195Z,98362.47
2022-09-14T03:08:41.050Z,98357.13
2022-09-14T03:09:37.889Z,98355.34
2022-09-14T03:10:34.717Z,98353.53
2022-09-14T03:11:31.485Z,98360.66
2022-09-14T03:12:28.181Z,98352.88
2022-09-14T03:13:25.119Z,98353.03
2022-09-14T03:14:22.022Z,98354.66
2022-09-14T03:15:19.085Z,98343.94
2022-09-14T03:16:17.156Z,98347.34
2022-09-14T03:17:14.079Z,98350.94
2022-09-14T03:18:14.282Z,98350.09
2022-09-14T03:19:12.440Z,98347.63
2022-09-14T03:20:09.659Z,98347.41
2022-09-14T03:21:07.931Z,98350.00
2022-09-14T03:22:04.732Z,98347.16
2022-09-14T03:23:01.806Z,98343.53
2022-09-14T03:23:58.818Z,98341.47
2022-09-14T03:24:55.758Z,98342.13
2022-09-14T03:25:52.694Z,98343.13
2022-09-14T03:26:52.233Z,98344.13
2022-09-14T03:27:52.802Z,98337.09
2022-09-14T03:28:53.609Z,98338.88
2022-09-14T03:29:50.341Z,98335.38
2022-09-14T03:30:47.983Z,98332.72
2022-09-14T03:31:45.307Z,98338.22
2022-09-14T03:32:42.193Z,98341.75
2022-09-14T03:33:39.572Z,98333.56
2022-09-14T03:34:36.522Z,98333.56
2022-09-14T03:35:33.323Z,98332.81
2022-09-14T03:36:31.258Z,98341.47
2022-09-14T03:37:28.254Z,98337.94
2022-09-14T03:38:27.976Z,98327.47
2022-09-14T03:39:24.907Z,98331.09
2022-09-14T03:40:22.301Z,98328.22
2022-09-14T03:41:19.642Z,98325.47
2022-09-14T03:42:16.763Z,98322.91
2022-09-14T03:43:13.635Z,98324.88
2022-09-14T03:44:10.626Z,98327.94
2022-09-14T03:45:07.702Z,98319.94
2022-09-14T03:46:08.055Z,98320.78
2022-09-14T03:47:05.031Z,98323.34
2022-09-14T03:48:01.996Z,98324.13
2022-09-14T03:48:59.036Z,98317.16
2022-09-14T03:49:55.855Z,98319.75
2022-09-14T03:50:52.897Z,98320.03
2022-09-14T03:51:49.822Z,98322.28
2022-09-14T03:52:46.640Z,98319.63
2022-09-14T03:53:45.061Z,98313.78
2022-09-14T03:54:42.027Z,98323.56
2022-09-14T03:55:40.788Z,98319.78
2022-09-14T03:56:37.984Z,98317.31
2022-09-14T03:57:34.813Z,98309.63
2022-09-14T03:58:32.062Z,98316.09
2022-09-14T03:59:28.775Z,98304.69
2022-09-14T04:00:25.641Z,98313.53
2022-09-14T04:01:22.828Z,98316.34
2022-09-14T04:02:20.000Z,98312.25
2022-09-14T04:03:17.121Z,98315.88
2022-09-14T04:04:14.050Z,98320.25
2022-09-14T04:05:11.618Z,98317.59
2022-09-14T04:06:08.562Z,98318.78
2022-09-14T04:07:05.421Z,98308.41
2022-09-14T04:08:02.273Z,98310.00
2022-09-14T04:08:59.371Z,98307.34
2022-09-14T04:09:56.327Z,98309.25
2022-09-14T04:10:53.668Z,98312.88
2022-09-14T04:11:50.572Z,98307.81
2022-09-14T04:12:47.344Z,98307.88
2022-09-14T04:13:44.446Z,98300.75
2022-09-14T04:14:41.274Z,98307.28
2022-09-14T04:15:38.202Z,98314.50
2022-09-14T04:16:35.141Z,98312.97
2022-09-14T04:17:31.927Z,98307.91
2022-09-14T04:18:28.969Z,98300.19
2022-09-14T04:19:25.794Z,98312.50
2022-09-14T04:20:23.587Z,98316.31
2022-09-14T04:21:22.450Z,98316.56
2022-09-14T04:22:19.353Z,98309.44
2022-09-14T04:23:16.181Z,98311.16
2022-09-14T04:24:15.599Z,98317.28
2022-09-14T04:25:12.875Z,98314.69
2022-09-14T04:26:13.410Z,98316.56
2022-09-14T04:27:10.225Z,98325.66
2022-09-14T04:28:22.387Z,98316.13
2022-09-14T04:29:19.242Z,98308.16
2022-09-14T04:30:16.224Z,98314.06
2022-09-14T04:31:13.208Z,98317.94
2022-09-14T04:32:10.007Z,98313.66
2022-09-14T04:33:06.750Z,98315.69
2022-09-14T04:34:03.514Z,98314.84
2022-09-14T04:35:00.825Z,98314.91
2022-09-14T04:36:03.982Z,98323.06
2022-09-14T04:37:00.729Z,98313.53
2022-09-14T04:37:57.401Z,98313.72
2022-09-14T04:38:54.518Z,98316.47
2022-09-14T04:39:51.323Z,98306.75
2022-09-14T04:40:48.345Z,98312.00
2022-09-14T04:41:45.111Z,98318.00
2022-09-14T04:42:41.921Z,98309.41
2022-09-14T04:43:38.813Z,98314.66
2022-09-14T04:44:35.577Z,98306.75
2022-09-14T04:45:32.525Z,98317.56
2022-09-14T04:46:32.816Z,98311.47
2022-09-14T04:47:30.057Z,98301.63
2022-09-14T04:48:27.276Z,98308.47
2022-09-14T04:49:24.006Z,98306.59
2022-09-14T04:50:20.652Z,98312.50
2022-09-14T04:51:19.153Z,98309.78
2022-09-14T04:52:15.939Z,98311.81
2022-09-14T04:53:12.684Z,98309.41
2022-09-14T04:54:09.735Z,98307.88
2022-09-14T04:55:07.277Z,98318.50
2022-09-14T04:56:05.486Z,98313.25
2022-09-14T04:57:02.254Z,98310.69
2022-09-14T04:57:58.988Z,98302.63
2022-09-14T04:58:58.540Z,98308.81
2022-09-14T04:59:55.329Z,98309.16
2022-09-14T05:00:52.247Z,98311.81
2022-09-14T05:01:49.114Z,98303.91
2022-09-14T05:02:46.204Z,98303.94
2022-09-14T05:03:43.197Z,98308.59
2022-09-14T05:04:39.974Z,98312.78
2022-09-14T05:05:40.041Z,98309.28
2022-09-14T05:06:40.861Z,98308.38
2022-09-14T05:07:37.561Z,98311.94
2022-09-14T05:08:36.315Z,98312.97
2022-09-14T05:09:33.144Z,98314.00
2022-09-14T05:10:29.990Z,98315.63
2022-09-14T05:11:29.282Z,98315.56
2022-09-14T05:12:26.100Z,98311.88
2022-09-14T05:13:23.569Z,98312.91
2022-09-14T05:14:20.471Z,98309.75
2022-09-14T05:15:17.215Z,98311.13
2022-09-14T05:16:17.396Z,98316.53
2022-09-14T05:17:14.483Z,98315.06
2022-09-14T05:18:11.416Z,98306.47
2022-09-14T05:19:09.414Z,98313.34
2022-09-14T05:20:06.820Z,98308.88
2022-09-14T05:21:08.211Z,98314.19
2022-09-14T05:22:05.496Z,98315.56
2022-09-14T05:23:02.233Z,98313.09
2022-09-14T05:24:00.449Z,98311.97
2022-09-14T05:24:57.223Z,98311.22
2022-09-14T05:25:54.275Z,98313.00
2022-09-14T05:26:52.337Z,98310.50
2022-09-14T05:27:49.330Z,98308.25
2022-09-14T05:28:49.880Z,98302.78
2022-09-14T05:29:47.494Z,98303.72
2022-09-14T05:30:49.001Z,98298.72
2022-09-14T05:31:45.977Z,98297.63
2022-09-14T05:32:42.742Z,98299.34
2022-09-14T05:33:39.641Z,98302.00
2022-09-14T05:34:36.837Z,98295.66
2022-09-14T05:35:34.487Z,98294.91
2022-09-14T05:36:31.282Z,98300.09
2022-09-14T05:37:28.050Z,98296.69
2022-09-14T05:38:24.722Z,98301.16
2022-09-14T05:39:23.449Z,98291.53
2022-09-14T05:40:20.334Z,98294.34
2022-09-14T05:41:17.401Z,98290.06
2022-09-14T05:42:14.240Z,98300.78
2022-09-14T05:43:11.230Z,98301.63
2022-09-14T05:44:08.099Z,98292.88
2022-09-14T05:45:05.137Z,98292.03
2022-09-14T05:46:05.144Z,98296.31
2022-09-14T05:47:01.987Z,98304.97
2022-09-14T05:48:02.195Z,98293.47
2022-09-14T05:48:58.955Z,98301.56
2022-09-14T05:49:55.775Z,98299.91
2022-09-14T05:50:59.131Z,98300.84
2022-09-14T05:51:55.943Z,98297.34
2022-09-14T05:52:52.839Z,98301.63
2022-09-14T05:53:50.395Z,98299.66
2022-09-14T05:54:47.265Z,98310.16
2022-09-14T05:55:44.112Z,98304.84
2022-09-14T05:56:40.873Z,98301.69
2022-09-14T05:57:37.808Z,98310.63
2022-09-14T05:58:35.049Z,98299.22
2022-09-14T05:59:31.828Z,98300.84
2022-09-14T06:00:29.528Z,98301.63
2022-09-14T06:01:27.957Z,98301.63
2022-09-14T06:02:25.115Z,98303.34
2022-09-14T06:03:22.081Z,98298.72
2022-09-14T06:04:19.066Z,98303.34
2022-09-14T06:05:16.260Z,98305.91
2022-09-14T06:06:14.642Z,98304.34
2022-09-14T06:07:19.201Z,98309.91
2022-09-14T06:08:17.458Z,98308.47
2022-09-14T06:09:15.210Z,98306.56
2022-09-14T06:10:12.431Z,98308.81
2022-09-14T06:11:11.036Z,98301.81
2022-09-14T06:12:08.161Z,98305.91
2022-09-14T06:13:04.938Z,98300.59
2022-09-14T06:14:02.123Z,98301.56
2022-09-14T06:14:59.198Z,98308.44
2022-09-14T06:15:56.750Z,98300.44
2022-09-14T06:16:53.682Z,98299.59
2022-09-14T06:17:50.763Z,98293.41
2022-09-14T06:18:48.082Z,98297.69
2022-09-14T06:19:45.002Z,98303.00
2022-09-14T06:20:50.167Z,98300.53
2022-09-14T06:21:47.297Z,98300.59
2022-09-14T06:22:44.627Z,98302.25
2022-09-14T06:23:44.177Z,98302.94
2022-09-14T06:24:41.143Z,98296.88
2022-09-14T06:25:38.380Z,98297.94
2022-09-14T06:26:35.303Z,98294.28
2022-09-14T06:27:32.275Z,98294.22
2022-09-14T06:28:29.188Z,98286.22
2022-09-14T06:29:26.038Z,98289.66
2022-09-14T06:30:22.950Z,98283.31
2022-09-14T06:31:22.734Z,98287.53
2022-09-14T06:32:21.106Z,98289.41
2022-09-14T06:33:18.500Z,98276.97
2022-09-14T06:35:12.525Z,98280.50
2022-09-14T06:37:06.237Z,98276.97
2022-09-14T06:38:33.071Z,98276.91
2022-09-14T06:39:38.805Z,98275.19
2022-09-14T06:40:42.826Z,98275.94
2022-09-14T06:41:40.457Z,98268.22
2022-09-14T06:42:39.774Z,98274.56
2022-09-14T06:43:57.934Z,98275.34
2022-09-14T06:45:12.773Z,98271.22
2022-09-14T06:57:22.732Z,98272.88
2022-09-14T07:00:13.011Z,98261.31
2022-09-14T07:01:15.402Z,98275.06
2022-09-14T07:02:13.690Z,98274.19
2022-09-14T07:03:11.144Z,98277.47
2022-09-14T07:04:09.656Z,98275.50
2022-09-14T07:05:06.587Z,98267.38
2022-09-14T07:06:07.927Z,98278.16
2022-09-14T07:07:04.852Z,98276.66
2022-09-14T07:08:02.459Z,98274.81
2022-09-14T07:08:59.566Z,98273.88
2022-09-14T07:09:56.437Z,98276.44
2022-09-14T07:10:58.145Z,98275.50
2022-09-14T07:11:55.284Z,98275.34
2022-09-14T07:12:52.116Z,98279.00
2022-09-14T07:13:50.057Z,98280.06
2022-09-14T07:14:46.829Z,98276.34
2022-09-14T07:15:50.264Z,98278.94
2022-09-14T07:16:48.240Z,98282.59
2022-09-14T07:17:45.730Z,98275.44
2022-09-14T07:18:45.884Z,98280.31
2022-09-14T07:19:43.478Z,98279.13
2022-09-14T07:20:45.608Z,98274.44
2022-09-14T07:21:48.468Z,98269.88
2022-09-14T07:24:11.986Z,98281.72
2022-09-14T07:25:09.916Z,98272.19
2022-09-14T07:26:11.737Z,98272.09
2022-09-14T07:27:08.626Z,98264.81
2022-09-14T07:28:14.513Z,98257.53
2022-09-14T07:29:13.661Z,98259.78
2022-09-14T07:30:10.815Z,98263.84
2022-09-14T07:31:17.805Z,98266.09
2022-09-14T07:32:14.860Z,98263.94
2022-09-14T07:33:11.779Z,98266.19
2022-09-14T07:34:08.658Z,98275.72
2022-09-14T07:35:05.605Z,98272.53
2022-09-14T07:36:08.803Z,98266.97
2022-09-14T07:37:10.517Z,98277.84
2022-09-14T07:38:07.519Z,98274.47
2022-09-14T07:39:05.645Z,98272.53
2022-09-14T07:40:02.869Z,98286.50
2022-09-14T07:41:07.638Z,98276.03
2022-09-14T07:42:26.529Z,98281.19
2022-09-14T07:43:23.230Z,98281.19
2022-09-14T07:44:20.149Z,98284.97
2022-09-14T07:45:30.154Z,98287.78
2022-09-14T07:46:28.325Z,98290.53
2022-09-14T07:47:25.111Z,98287.00
2022-09-14T07:48:22.686Z,98287.69
2022-09-14T07:49:19.586Z,98292.16
2022-09-14T07:50:16.434Z,98282.38
2022-09-14T07:51:13.204Z,98284.44
2022-09-14T07:52:11.350Z,98284.66
2022-09-14T07:53:08.267Z,98276.84
2022-09-14T07:54:06.103Z,98279.44
2022-09-14T07:55:03.401Z,98270.41
2022-09-14T07:56:02.924Z,98280.88
2022-09-14T07:56:59.853Z,98283.16
2022-09-14T07:57:57.044Z,98283.31
2022-09-14T07:58:55.533Z,98275.50
2022-09-14T07:59:55.249Z,98275.44
2022-09-14T08:00:52.221Z,98274.47
2022-09-14T08:01:50.228Z,98272.59
2022-09-14T08:02:52.821Z,98258.44
2022-09-14T08:03:49.904Z,98263.25
2022-09-14T08:04:46.833Z,98267.19
2022-09-14T08:05:43.824Z,98271.06
2022-09-14T08:06:40.860Z,98278.19
2022-09-14T08:07:37.854Z,98273.75
2022-09-14T08:08:36.412Z,98272.63
2022-09-14T08:09:33.568Z,98271.50
2022-09-14T08:10:30.560Z,98276.91
2022-09-14T08:11:29.274Z,98278.97
2022-09-14T08:12:26.177Z,98278.44
2022-09-14T08:13:23.255Z,98286.34
2022-09-14T08:14:20.697Z,98280.34
2022-09-14T08:15:17.844Z,98280.34
2022-09-14T08:16:14.930Z,98274.94
2022-09-14T08:17:12.035Z,98269.50
2022-09-14T08:18:08.939Z,98274.50
2022-09-14T08:19:07.300Z,98264.22
2022-09-14T08:20:05.239Z,98272.63
2022-09-14T08:21:13.335Z,98271.31
2022-09-14T08:22:10.250Z,98274.06
2022-09-14T08:23:07.211Z,98273.97
2022-09-14T08:24:04.452Z,98272.69
2022-09-14T08:25:01.504Z,98273.72
2022-09-14T08:26:12.077Z,98272.69
2022-09-14T08:27:12.305Z,98275.69
2022-09-14T08:28:09.591Z,98281.88
2022-09-14T08:29:07.476Z,98278.34
2022-09-14T08:30:05.009Z,98281.03
2022-09-14T08:31:03.652Z,98290.72
2022-09-14T08:32:00.695Z,98284.88
2022-09-14T08:33:01.661Z,98285.91
2022-09-14T08:34:00.370Z,98290.38
2022-09-14T08:34:57.467Z,98284.44
2022-09-14T08:35:57.763Z,98291.69
2022-09-14T08:36:55.142Z,98289.97
2022-09-14T08:37:52.109Z,98287.47
2022-09-14T08:38:48.940Z,98292.63
2022-09-14T08:39:51.423Z,98287.22
2022-09-14T08:40:48.692Z,98299.56
2022-09-14T08:41:48.443Z,98291.91
2022-09-14T08:42:45.371Z,98295.13
2022-09-14T08:43:42.196Z,98294.00
2022-09-14T08:44:43.861Z,98297.16
2022-09-14T08:45:42.683Z,98296.56
2022-09-14T08:46:44.819Z,98301.72
2022-09-14T08:47:42.088Z,98298.09
2022-09-14T08:48:41.891Z,98293.97
2022-09-14T08:49:57.191Z,98301.09
2022-09-14T08:50:54.234Z,98294.94
2022-09-14T08:51:51.918Z,98293.91
2022-09-14T08:52:50.112Z,98296.50
2022-09-14T08:53:46.968Z,98292.09
2022-09-14T08:54:44.467Z,98296.56
2022-09-14T08:55:44.827Z,98299.31
2022-09-14T08:56:45.764Z,98295.72
2022-09-14T08:57:49.002Z,98295.38
2022-09-14T08:58:48.765Z,98292.53
2022-09-14T08:59:53.463Z,98283.59
2022-09-14T09:01:18.038Z,98284.63
2022-09-14T09:02:41.333Z,98281.19
2022-09-14T09:03:57.813Z,98293.22
2022-09-14T09:05:22.439Z,98295.94
2022-09-14T09:06:28.332Z,98292.34
2022-09-14T09:07:31.275Z,98300.41
2022-09-14T09:08:39.794Z,98293.63
2022-09-14T09:09:45.351Z,98284.69
2022-09-14T09:10:42.292Z,98284.69
2022-09-14T09:11:44.161Z,98293.22
2022-09-14T09:12:53.854Z,98305.72
2022-09-14T09:13:51.097Z,98302.81
2022-09-14T09:14:59.773Z,98302.59
2022-09-14T09:16:00.172Z,98308.75
2022-09-14T09:16:58.796Z,98307.53
2022-09-14T09:18:16.262Z,98307.53
2022-09-14T09:19:20.124Z,98311.00
2022-09-14T09:20:57.996Z,98304.38
2022-09-14T09:21:55.912Z,98305.13
2022-09-14T09:23:08.234Z,98311.56
2022-09-14T09:24:26.904Z,98310.81
2022-09-14T09:25:29.083Z,98312.44
2022-09-14T09:26:26.045Z,98321.47
2022-09-14T09:27:26.289Z,98314.41
2022-09-14T09:28:24.132Z,98311.22
2022-09-14T09:29:21.001Z,98309.09
2022-09-14T09:30:18.342Z,98307.38
2022-09-14T09:31:16.651Z,98308.22
2022-09-14T09:32:21.603Z,98301.19
2022-09-14T09:33:24.394Z,98289.59
2022-09-14T09:34:27.375Z,98287.72
2022-09-14T09:35:25.027Z,98283.16
2022-09-14T09:36:23.797Z,98284.88
2022-09-14T09:37:23.922Z,98281.97
2022-09-14T09:38:25.056Z,98289.28
2022-09-14T09:39:26.064Z,98281.56
2022-09-14T09:40:34.854Z,98283.59
2022-09-14T09:41:36.547Z,98278.72
2022-09-14T09:42:33.905Z,98284.28
2022-09-14T09:43:47.815Z,98290.66
2022-09-14T09:45:06.950Z,98291.84
2022-09-14T09:46:04.789Z,98293.03
2022-09-14T09:47:01.891Z,98293.88
2022-09-14T09:47:58.995Z,98288.63
2022-09-14T09:48:55.953Z,98283.63
2022-09-14T09:49:58.624Z,98276.66
2022-09-14T09:51:00.522Z,98270.50
2022-09-14T09:51:58.757Z,98273.78
2022-09-14T09:53:01.173Z,98273.66
2022-09-14T09:54:01.756Z,98277.84
2022-09-14T09:54:58.871Z,98277.59
2022-09-14T09:55:55.816Z,98274.94
2022-09-14T09:56:52.588Z,98273.72
2022-09-14T09:57:49.671Z,98272.34
2022-09-14T09:58:51.629Z,98275.47
2022-09-14T09:59:48.721Z,98268.91
2022-09-14T10:01:02.061Z,98270.97
2022-09-14T10:02:28.810Z,98274.06
2022-09-14T10:05:08.700Z,98275.09
2022-09-14T10:06:12.621Z,98271.25
2022-09-14T10:07:10.196Z,98267.84
2022-09-14T10:08:11.372Z,98270.47
2022-09-14T10:09:17.942Z,98268.06
2022-09-14T10:10:15.506Z,98268.72
2022-09-14T10:11:31.961Z,98273.31
2022-09-14T10:12:30.991Z,98261.50
2022-09-14T10:13:37.663Z,98270.88
2022-09-14T10:14:36.565Z,98268.47
2022-09-14T10:15:34.418Z,98265.69
2022-09-14T10:16:39.130Z,98265.63
2022-09-14T10:17:35.989Z,98258.47
2022-09-14T10:18:33.006Z,98265.53
2022-09-14T10:19:30.683Z,98272.94
2022-09-14T10:20:27.733Z,98267.44
2022-09-14T10:21:25.818Z,98276.09
2022-09-14T10:23:39.060Z,98277.13
2022-09-14T10:24:36.307Z,98276.16
2022-09-14T10:25:33.141Z,98276.47
2022-09-14T10:26:32.848Z,98271.41
2022-09-14T10:27:38.298Z,98275.75
2022-09-14T10:28:35.549Z,98274.78
2022-09-14T10:29:41.567Z,98282.97
2022-09-14T10:30:47.991Z,98277.56
2022-09-14T10:31:45.648Z,98281.56
2022-09-14T10:32:45.833Z,98281.47
2022-09-14T10:33:42.807Z,98273.19
2022-09-14T10:34:39.806Z,98275.56
2022-09-14T10:35:46.024Z,98266.41
2022-09-14T10:36:48.204Z,98274.22
2022-09-14T10:37:45.112Z,98257.41
2022-09-14T10:38:58.512Z,98264.09
2022-09-14T10:40:07.568Z,98262.66
2022-09-14T10:41:15.950Z,98261.19
2022-09-14T10:42:12.846Z,98251.84
2022-09-14T10:45:17.034Z,98257.06
2022-09-14T10:46:24.859Z,98254.84
2022-09-14T10:47:21.652Z,98251.41
2022-09-14T10:48:33.620Z,98247.88
2022-09-14T10:50:03.683Z,98246.63
2022-09-14T10:51:15.427Z,98243.31
2022-09-14T10:52:27.063Z,98238.81
2022-09-14T10:53:32.755Z,98238.41
2022-09-14T10:54:32.747Z,98234.28
2022-09-14T10:55:57.977Z,98235.44
2022-09-14T10:57:18.342Z,98234.81
2022-09-14T10:58:30.257Z,98242.84
2022-09-14T10:59:53.094Z,98236.69
2022-09-14T11:01:01.729Z,98238.34
2022-09-14T11:02:25.309Z,98231.78
2022-09-14T11:03:58.462Z,98224.09
2022-09-14T11:05:33.432Z,98222.16
2022-09-14T11:06:40.408Z,98219.13
2022-09-14T11:07:50.464Z,98208.94
2022-09-14T11:08:52.609Z,98214.63
2022-09-14T11:10:07.689Z,98212.44
2022-09-14T11:11:35.234Z,98211.63
2022-09-14T11:12:35.331Z,98213.69
2022-09-14T11:13:59.244Z,98207.06
2022-09-14T11:15:04.765Z,98206.88
2022-09-14T11:16:06.081Z,98211.81
2022-09-14T11:17:27.762Z,98209.91
2022-09-14T11:18:42.688Z,98203.28
2022-09-14T11:21:13.799Z,98213.53
2022-09-14T11:22:31.932Z,98201.25
2022-09-14T11:23:43.594Z,98217.59
2022-09-14T11:24:54.881Z,98207.88
2022-09-14T11:26:15.479Z,98206.50
2022-09-14T11:27:45.085Z,98212.03
2022-09-14T11:28:44.887Z,98208.47
2022-09-14T11:30:05.981Z,98211.66
2022-09-14T11:31:25.266Z,98215.78
2022-09-14T11:32:59.540Z,98207.69
2022-09-14T11:34:20.642Z,98209.38
2022-09-14T11:35:49.757Z,98201.41
2022-09-14T11:36:50.171Z,98201.97
2022-09-14T11:37:59.536Z,98211.06
2022-09-14T11:39:23.529Z,98215.53
2022-09-14T11:40:29.138Z,98215.63
2022-09-14T11:41:33.736Z,98213.06
2022-09-14T11:42:36.059Z,98214.69
2022-09-14T11:44:03.326Z,98215.09
2022-09-14T11:45:03.694Z,98211.88
2022-09-14T11:58:38.785Z,98218.41
2022-09-14T11:59:43.958Z,98224.50
2022-09-14T12:07:26.495Z,98231.84
2022-09-14T12:21:57.384Z,98225.13
2022-09-14T12:25:51.498Z,98216.97
2022-09-14T12:26:11.312Z,98212.22
2022-09-14T12:27:37.412Z,98200.84
2022-09-14T12:28:56.524Z,98206.00
2022-09-14T12:30:11.403Z,98207.63
2022-09-14T12:31:47.886Z,98219.69
2022-09-14T12:32:57.226Z,98211.97
2022-09-14T12:35:04.856Z,98216.00
2022-09-14T12:36:25.839Z,98215.81
2022-09-14T12:38:22.103Z,98203.94
2022-09-14T12:40:48.040Z,98201.63
2022-09-14T12:43:34.193Z,98209.44
2022-09-14T12:45:30.842Z,98212.78
2022-09-14T12:49:13.739Z,98200.50
2022-09-14T12:50:24.874Z,98199.81
2022-09-14T12:51:31.440Z,98203.41
2022-09-14T12:53:15.827Z,98198.19
2022-09-14T12:55:26.580Z,98192.94
2022-09-14T12:56:43.409Z,98198.53
2022-09-14T12:57:48.699Z,98189.00
2022-09-14T12:59:12.102Z,98189.34
2022-09-14T13:16:00.003Z,98176.41
2022-09-14T13:17:14.009Z,98171.94
2022-09-14T13:18:29.553Z,98174.50
2022-09-14T13:19:34.412Z,98168.31
2022-09-14T13:24:21.547Z,98181.00
2022-09-14T13:25:33.021Z,98196.66
2022-09-14T13:26:31.693Z,98190.66
2022-09-14T13:27:36.252Z,98195.81
2022-09-14T13:28:33.309Z,98194.34
2022-09-14T13:29:31.309Z,98194.53
2022-09-14T13:30:28.528Z,98198.44
2022-09-14T13:31:32.918Z,98195.16
2022-09-14T13:32:29.935Z,98197.75
2022-09-14T13:33:28.159Z,98193.28
2022-09-14T13:34:27.641Z,98200.22
2022-09-14T13:35:32.988Z,98199.53
2022-09-14T13:36:34.111Z,98188.91
2022-09-14T13:37:31.147Z,98191.09
2022-09-14T13:38:32.702Z,98195.81
2022-09-14T13:39:34.994Z,98190.56